Domov               UVHVVR             MKGP            O straneh              
ZDRAVSTVENO VARSTVO RASTLIN
  MREŽA AGROMET. POSTAJ
 ► PROGNOSTIČNA OBVESTILA
AGROMETEOROLOŠKI PODATKI -
ARSO
OBVLADOVANJE TVEGANJ ZARADI
NEUGODNIH VREMENSKIH RAZMER
  ► NARAVNE NESREČE
  ► SUŠA/MOČA
  ► NAMAKANJE
  ► ŽLED (gozdarstvo)
KARTOGRAFSKI PRIKAZI
SPLETNE POVEZAVE
PROJEKTI IN PUBLIKACIJE

AGROMETEOROLOŠKA MREŽA: VREMENSKE POSTAJE IN FENOLOŠKA OPAZOVANJA

Pregled podatkov za lokacijo Zavrhek, meteorološka postaja 37907

Pregled senzorjev na lokaciji

ID Ime Zadnja
vrednost
Datum
zadnje
spremembe
Tip
senzorja
1991 Padavine (mm) 0 mm 23.7.2018 05:00 Rain-O-Matic
1990 Relativna vlaga 2 m (% RH) 99,93 % RH 23.7.2018 05:00 50YA
1989 Temperatura 2 m (°C) 14,68 °C 23.7.2018 05:00 50YA

Pregled podatkov zadnjih 24 ur

Zap.
št.
Datum in čas Zavrhek
Padavine Relativna
vlaga
2
m
Temperatura
2
m
1 23.7.2018 05:30
2 23.7.2018 05:00
3 23.7.2018 04:30
4 23.7.2018 04:00 0 99,9 14,7
5 23.7.2018 03:30 0 99,9 14,5
6 23.7.2018 03:00 0 99,9 14,3
7 23.7.2018 02:30 0 99,9 14,8
8 23.7.2018 02:00 0 99,9 15,3
9 23.7.2018 01:30 0 99,6 15,7
10 23.7.2018 01:00 0 97,9 16
11 23.7.2018 00:30 0 97,9 16,4
12 23.7.2018 00:00 0 98,5 16,5
13 22.7.2018 23:30 0 96,8 16,5
14 22.7.2018 23:00 0 95,8 16,7
15 22.7.2018 22:30 0 95,3 16,7
16 22.7.2018 22:00 0 95,4 16,6
17 22.7.2018 21:30 0 94,7 16,9
18 22.7.2018 21:00 0 94 17,1
19 22.7.2018 20:30 0 90,2 17,4
20 22.7.2018 20:00 0 76,5 19,1
21 22.7.2018 19:30 0 77,2 19,4
22 22.7.2018 19:00 0 89,3 19,9
23 22.7.2018 18:30 0 86,5 20,8
24 22.7.2018 18:00 0 82,9 21,7
25 22.7.2018 17:30 0 75 24,2
26 22.7.2018 17:00 0 76,7 23,8
27 22.7.2018 16:30 0 72,4 24,6
28 22.7.2018 16:00 0 73,8 24,8
29 22.7.2018 15:30 0 76,2 24,2
30 22.7.2018 15:00 0 68 25,7
31 22.7.2018 14:30 0 68,1 25,4
32 22.7.2018 14:00 0 81,8 23,4
33 22.7.2018 13:30 0 97,6 20
34 22.7.2018 13:00 0 99,9 19,7
35 22.7.2018 12:30 0,4 99,9 18,9
36 22.7.2018 12:00 2 99,9 18,1
37 22.7.2018 11:30 3,6 98,8 17,1
38 22.7.2018 11:00 5,4 91 18,9
39 22.7.2018 10:30 0 61,7 26,8
40 22.7.2018 10:00 0 59,4 25,6
41 22.7.2018 09:30 0 65,1 24,9
42 22.7.2018 09:00 0 67,2 24,2
43 22.7.2018 08:30 0 77 23,1
44 22.7.2018 08:00 0 80,3 21,8
45 22.7.2018 07:30 0 80,9 21,1
46 22.7.2018 07:00 0 89,5 18,9
47 22.7.2018 06:30 0 99,5 17,1
48 22.7.2018 06:00 0 99,9 16
© 2011 Ministrstvo za kmetijstvo, gozdarstvo in prehrano. Vse pravice pridržane.